sensor_id;sensor_type;location;lat;lon;timestamp;P1;durP1;ratioP1;P2;durP2;ratioP2
4420;SDS011;11824;51.178;13.546;2023-03-01T00:01:11;57.40;;;22.43;;
4420;SDS011;11824;51.178;13.546;2023-03-01T00:03:40;41.83;;;21.13;;
4420;SDS011;11824;51.178;13.546;2023-03-01T00:06:08;43.50;;;19.90;;
4420;SDS011;11824;51.178;13.546;2023-03-01T00:08:36;43.73;;;20.00;;
4420;SDS011;11824;51.178;13.546;2023-03-01T00:11:04;49.47;;;20.27;;
4420;SDS011;11824;51.178;13.546;2023-03-01T00:13:34;38.67;;;16.87;;
4420;SDS011;11824;51.178;13.546;2023-03-01T00:16:02;39.43;;;19.50;;
4420;SDS011;11824;51.178;13.546;2023-03-01T00:18:30;38.50;;;16.87;;
4420;SDS011;11824;51.178;13.546;2023-03-01T00:20:58;39.77;;;18.07;;
4420;SDS011;11824;51.178;13.546;2023-03-01T00:23:25;38.37;;;17.33;;
4420;SDS011;11824;51.178;13.546;2023-03-01T00:25:53;33.53;;;15.30;;
4420;SDS011;11824;51.178;13.546;2023-03-01T00:28:21;38.40;;;16.87;;
4420;SDS011;11824;51.178;13.546;2023-03-01T00:30:49;34.63;;;16.10;;
4420;SDS011;11824;51.178;13.546;2023-03-01T00:33:16;25.77;;;14.80;;
4420;SDS011;11824;51.178;13.546;2023-03-01T00:35:44;30.93;;;13.90;;
4420;SDS011;11824;51.178;13.546;2023-03-01T00:38:11;29.40;;;13.67;;
4420;SDS011;11824;51.178;13.546;2023-03-01T00:40:38;29.20;;;13.83;;
4420;SDS011;11824;51.178;13.546;2023-03-01T00:43:06;25.50;;;11.43;;
4420;SDS011;11824;51.178;13.546;2023-03-01T00:45:34;26.00;;;12.47;;
4420;SDS011;11824;51.178;13.546;2023-03-01T00:48:02;30.07;;;12.17;;
4420;SDS011;11824;51.178;13.546;2023-03-01T00:50:30;24.60;;;11.83;;
4420;SDS011;11824;51.178;13.546;2023-03-01T00:52:57;24.97;;;11.60;;
4420;SDS011;11824;51.178;13.546;2023-03-01T00:55:25;32.90;;;14.47;;
4420;SDS011;11824;51.178;13.546;2023-03-01T00:57:52;29.17;;;13.63;;
4420;SDS011;11824;51.178;13.546;2023-03-01T01:00:20;42.93;;;16.50;;
4420;SDS011;11824;51.178;13.546;2023-03-01T01:02:48;38.50;;;16.57;;
4420;SDS011;11824;51.178;13.546;2023-03-01T01:05:16;29.97;;;13.53;;
4420;SDS011;11824;51.178;13.546;2023-03-01T01:07:46;34.30;;;15.50;;
4420;SDS011;11824;51.178;13.546;2023-03-01T01:10:14;37.40;;;15.37;;
4420;SDS011;11824;51.178;13.546;2023-03-01T01:12:43;38.53;;;15.43;;
4420;SDS011;11824;51.178;13.546;2023-03-01T01:15:10;36.30;;;15.93;;
4420;SDS011;11824;51.178;13.546;2023-03-01T01:17:39;32.33;;;15.30;;
4420;SDS011;11824;51.178;13.546;2023-03-01T01:20:07;40.10;;;14.70;;
4420;SDS011;11824;51.178;13.546;2023-03-01T01:22:36;34.20;;;14.37;;
4420;SDS011;11824;51.178;13.546;2023-03-01T01:25:04;31.43;;;13.63;;
4420;SDS011;11824;51.178;13.546;2023-03-01T01:27:31;34.50;;;15.27;;
4420;SDS011;11824;51.178;13.546;2023-03-01T01:29:58;36.70;;;13.40;;
4420;SDS011;11824;51.178;13.546;2023-03-01T01:32:26;31.63;;;15.00;;
4420;SDS011;11824;51.178;13.546;2023-03-01T01:34:53;28.60;;;14.40;;
4420;SDS011;11824;51.178;13.546;2023-03-01T01:37:21;32.17;;;13.93;;
4420;SDS011;11824;51.178;13.546;2023-03-01T01:39:48;31.87;;;14.70;;
4420;SDS011;11824;51.178;13.546;2023-03-01T01:42:16;36.80;;;13.63;;
4420;SDS011;11824;51.178;13.546;2023-03-01T01:44:44;26.63;;;12.83;;
4420;SDS011;11824;51.178;13.546;2023-03-01T01:47:14;25.13;;;13.23;;
4420;SDS011;11824;51.178;13.546;2023-03-01T01:49:44;27.43;;;12.37;;
4420;SDS011;11824;51.178;13.546;2023-03-01T01:52:16;30.07;;;13.33;;
4420;SDS011;11824;51.178;13.546;2023-03-01T01:54:47;27.77;;;13.73;;
4420;SDS011;11824;51.178;13.546;2023-03-01T01:57:20;24.63;;;13.40;;
4420;SDS011;11824;51.178;13.546;2023-03-01T01:59:52;25.37;;;14.47;;
4420;SDS011;11824;51.178;13.546;2023-03-01T02:02:22;31.23;;;13.20;;
4420;SDS011;11824;51.178;13.546;2023-03-01T02:04:50;42.97;;;16.63;;
4420;SDS011;11824;51.178;13.546;2023-03-01T02:07:25;36.67;;;14.23;;
4420;SDS011;11824;51.178;13.546;2023-03-01T02:09:53;24.20;;;13.00;;
4420;SDS011;11824;51.178;13.546;2023-03-01T02:12:23;34.33;;;13.13;;
4420;SDS011;11824;51.178;13.546;2023-03-01T02:14:51;24.63;;;12.53;;
4420;SDS011;11824;51.178;13.546;2023-03-01T02:17:18;26.93;;;12.73;;
4420;SDS011;11824;51.178;13.546;2023-03-01T02:19:50;32.27;;;13.97;;
4420;SDS011;11824;51.178;13.546;2023-03-01T02:22:27;29.83;;;13.10;;
4420;SDS011;11824;51.178;13.546;2023-03-01T02:25:00;27.20;;;11.90;;
4420;SDS011;11824;51.178;13.546;2023-03-01T02:27:38;31.77;;;13.53;;
4420;SDS011;11824;51.178;13.546;2023-03-01T02:30:24;25.57;;;12.37;;
4420;SDS011;11824;51.178;13.546;2023-03-01T02:32:53;32.13;;;13.57;;
4420;SDS011;11824;51.178;13.546;2023-03-01T02:35:28;25.17;;;12.87;;
4420;SDS011;11824;51.178;13.546;2023-03-01T02:37:58;35.50;;;14.00;;
4420;SDS011;11824;51.178;13.546;2023-03-01T02:40:27;28.40;;;12.33;;
4420;SDS011;11824;51.178;13.546;2023-03-01T02:42:57;45.80;;;18.70;;
4420;SDS011;11824;51.178;13.546;2023-03-01T02:45:25;26.40;;;13.07;;
4420;SDS011;11824;51.178;13.546;2023-03-01T02:47:53;34.80;;;14.10;;
4420;SDS011;11824;51.178;13.546;2023-03-01T02:50:24;34.00;;;14.97;;
4420;SDS011;11824;51.178;13.546;2023-03-01T02:53:10;36.33;;;16.73;;
4420;SDS011;11824;51.178;13.546;2023-03-01T02:55:42;29.17;;;12.77;;
4420;SDS011;11824;51.178;13.546;2023-03-01T02:58:10;26.77;;;14.60;;
4420;SDS011;11824;51.178;13.546;2023-03-01T03:00:39;31.27;;;14.50;;
4420;SDS011;11824;51.178;13.546;2023-03-01T03:03:11;30.13;;;13.73;;
4420;SDS011;11824;51.178;13.546;2023-03-01T03:05:40;29.03;;;12.93;;
4420;SDS011;11824;51.178;13.546;2023-03-01T03:08:08;32.13;;;13.13;;
4420;SDS011;11824;51.178;13.546;2023-03-01T03:10:37;33.10;;;15.53;;
4420;SDS011;11824;51.178;13.546;2023-03-01T03:13:06;30.00;;;13.07;;
4420;SDS011;11824;51.178;13.546;2023-03-01T03:15:34;36.03;;;14.27;;
4420;SDS011;11824;51.178;13.546;2023-03-01T03:18:03;29.97;;;13.13;;
4420;SDS011;11824;51.178;13.546;2023-03-01T03:20:32;26.60;;;13.33;;
4420;SDS011;11824;51.178;13.546;2023-03-01T03:23:00;28.63;;;12.93;;
4420;SDS011;11824;51.178;13.546;2023-03-01T03:25:28;37.00;;;14.50;;
4420;SDS011;11824;51.178;13.546;2023-03-01T03:27:56;28.63;;;13.43;;
4420;SDS011;11824;51.178;13.546;2023-03-01T03:30:24;37.83;;;13.60;;
4420;SDS011;11824;51.178;13.546;2023-03-01T03:32:53;30.90;;;14.17;;
4420;SDS011;11824;51.178;13.546;2023-03-01T03:35:23;40.97;;;15.03;;
4420;SDS011;11824;51.178;13.546;2023-03-01T03:37:52;28.67;;;14.50;;
4420;SDS011;11824;51.178;13.546;2023-03-01T03:40:28;29.57;;;13.40;;
4420;SDS011;11824;51.178;13.546;2023-03-01T03:42:57;35.17;;;14.93;;
4420;SDS011;11824;51.178;13.546;2023-03-01T03:45:24;32.33;;;14.33;;
4420;SDS011;11824;51.178;13.546;2023-03-01T03:47:52;47.80;;;15.50;;
4420;SDS011;11824;51.178;13.546;2023-03-01T03:50:19;43.20;;;13.07;;
4420;SDS011;11824;51.178;13.546;2023-03-01T03:52:47;33.40;;;14.57;;
4420;SDS011;11824;51.178;13.546;2023-03-01T03:55:14;32.50;;;16.27;;
4420;SDS011;11824;51.178;13.546;2023-03-01T03:57:45;31.33;;;14.20;;
4420;SDS011;11824;51.178;13.546;2023-03-01T04:00:17;41.87;;;15.80;;
4420;SDS011;11824;51.178;13.546;2023-03-01T04:02:47;26.43;;;12.07;;
4420;SDS011;11824;51.178;13.546;2023-03-01T04:05:15;28.13;;;13.47;;
4420;SDS011;11824;51.178;13.546;2023-03-01T04:07:44;29.97;;;11.03;;
4420;SDS011;11824;51.178;13.546;2023-03-01T04:10:13;59.53;;;18.90;;
4420;SDS011;11824;51.178;13.546;2023-03-01T04:12:42;30.60;;;14.47;;
4420;SDS011;11824;51.178;13.546;2023-03-01T04:15:10;42.97;;;18.40;;
4420;SDS011;11824;51.178;13.546;2023-03-01T04:17:41;45.03;;;17.57;;
4420;SDS011;11824;51.178;13.546;2023-03-01T04:20:10;125.40;;;36.30;;
4420;SDS011;11824;51.178;13.546;2023-03-01T04:22:39;55.87;;;20.90;;
4420;SDS011;11824;51.178;13.546;2023-03-01T04:25:07;338.73;;;121.70;;
4420;SDS011;11824;51.178;13.546;2023-03-01T04:27:40;212.13;;;77.20;;
4420;SDS011;11824;51.178;13.546;2023-03-01T04:30:07;120.07;;;45.97;;
4420;SDS011;11824;51.178;13.546;2023-03-01T04:32:36;61.43;;;22.33;;
4420;SDS011;11824;51.178;13.546;2023-03-01T04:35:04;48.57;;;19.80;;
4420;SDS011;11824;51.178;13.546;2023-03-01T04:37:31;49.33;;;20.43;;
4420;SDS011;11824;51.178;13.546;2023-03-01T04:39:58;66.80;;;26.13;;
4420;SDS011;11824;51.178;13.546;2023-03-01T04:42:26;38.80;;;17.57;;
4420;SDS011;11824;51.178;13.546;2023-03-01T04:44:54;43.90;;;20.17;;
4420;SDS011;11824;51.178;13.546;2023-03-01T04:47:21;42.17;;;16.30;;
4420;SDS011;11824;51.178;13.546;2023-03-01T04:49:48;39.20;;;17.37;;
4420;SDS011;11824;51.178;13.546;2023-03-01T04:52:15;44.37;;;19.30;;
4420;SDS011;11824;51.178;13.546;2023-03-01T04:54:43;44.70;;;20.63;;
4420;SDS011;11824;51.178;13.546;2023-03-01T04:57:10;59.67;;;24.40;;
4420;SDS011;11824;51.178;13.546;2023-03-01T04:59:37;68.37;;;24.43;;
4420;SDS011;11824;51.178;13.546;2023-03-01T05:02:05;193.23;;;64.00;;
4420;SDS011;11824;51.178;13.546;2023-03-01T05:04:32;250.30;;;81.67;;
4420;SDS011;11824;51.178;13.546;2023-03-01T05:07:00;90.23;;;33.87;;
4420;SDS011;11824;51.178;13.546;2023-03-01T05:09:27;53.73;;;23.67;;
4420;SDS011;11824;51.178;13.546;2023-03-01T05:11:54;51.83;;;23.37;;
4420;SDS011;11824;51.178;13.546;2023-03-01T05:14:22;56.57;;;22.53;;
4420;SDS011;11824;51.178;13.546;2023-03-01T05:16:49;55.33;;;23.30;;
4420;SDS011;11824;51.178;13.546;2023-03-01T05:19:17;47.97;;;20.53;;
4420;SDS011;11824;51.178;13.546;2023-03-01T05:21:48;41.33;;;19.67;;
4420;SDS011;11824;51.178;13.546;2023-03-01T05:24:29;76.10;;;27.23;;
4420;SDS011;11824;51.178;13.546;2023-03-01T05:26:57;54.77;;;23.17;;
4420;SDS011;11824;51.178;13.546;2023-03-01T05:29:25;57.27;;;23.40;;
4420;SDS011;11824;51.178;13.546;2023-03-01T05:31:54;64.10;;;26.57;;
4420;SDS011;11824;51.178;13.546;2023-03-01T05:34:24;59.60;;;21.93;;
4420;SDS011;11824;51.178;13.546;2023-03-01T05:36:52;59.00;;;20.47;;
4420;SDS011;11824;51.178;13.546;2023-03-01T05:39:20;67.73;;;28.17;;
4420;SDS011;11824;51.178;13.546;2023-03-01T05:41:48;48.03;;;20.20;;
4420;SDS011;11824;51.178;13.546;2023-03-01T05:44:18;61.47;;;21.10;;
4420;SDS011;11824;51.178;13.546;2023-03-01T05:46:46;69.17;;;28.47;;
4420;SDS011;11824;51.178;13.546;2023-03-01T05:49:13;85.77;;;28.17;;
4420;SDS011;11824;51.178;13.546;2023-03-01T05:51:42;102.47;;;36.37;;
4420;SDS011;11824;51.178;13.546;2023-03-01T05:54:15;96.60;;;38.33;;
4420;SDS011;11824;51.178;13.546;2023-03-01T05:56:42;54.60;;;23.53;;
4420;SDS011;11824;51.178;13.546;2023-03-01T05:59:10;51.13;;;20.90;;
4420;SDS011;11824;51.178;13.546;2023-03-01T06:01:39;43.93;;;21.20;;
4420;SDS011;11824;51.178;13.546;2023-03-01T06:04:06;44.13;;;19.87;;
4420;SDS011;11824;51.178;13.546;2023-03-01T06:06:33;53.50;;;20.07;;
4420;SDS011;11824;51.178;13.546;2023-03-01T06:09:03;56.23;;;20.27;;
4420;SDS011;11824;51.178;13.546;2023-03-01T06:11:33;41.50;;;19.90;;
4420;SDS011;11824;51.178;13.546;2023-03-01T06:14:00;48.10;;;23.20;;
4420;SDS011;11824;51.178;13.546;2023-03-01T06:16:28;44.80;;;22.30;;
4420;SDS011;11824;51.178;13.546;2023-03-01T06:18:56;53.63;;;22.53;;
4420;SDS011;11824;51.178;13.546;2023-03-01T06:21:23;41.50;;;19.77;;
4420;SDS011;11824;51.178;13.546;2023-03-01T06:23:50;57.70;;;21.63;;
4420;SDS011;11824;51.178;13.546;2023-03-01T06:26:18;46.20;;;20.87;;
4420;SDS011;11824;51.178;13.546;2023-03-01T06:28:46;54.20;;;22.67;;
4420;SDS011;11824;51.178;13.546;2023-03-01T06:31:13;80.90;;;26.93;;
4420;SDS011;11824;51.178;13.546;2023-03-01T06:33:40;54.53;;;23.63;;
4420;SDS011;11824;51.178;13.546;2023-03-01T06:36:10;51.17;;;22.07;;
4420;SDS011;11824;51.178;13.546;2023-03-01T06:38:37;56.20;;;19.93;;
4420;SDS011;11824;51.178;13.546;2023-03-01T06:41:06;77.00;;;22.60;;
4420;SDS011;11824;51.178;13.546;2023-03-01T06:43:34;52.27;;;22.67;;
4420;SDS011;11824;51.178;13.546;2023-03-01T06:46:03;62.53;;;25.10;;
4420;SDS011;11824;51.178;13.546;2023-03-01T06:48:32;62.90;;;26.37;;
4420;SDS011;11824;51.178;13.546;2023-03-01T06:50:59;56.63;;;24.73;;
4420;SDS011;11824;51.178;13.546;2023-03-01T06:53:27;56.70;;;26.67;;
4420;SDS011;11824;51.178;13.546;2023-03-01T06:55:55;71.47;;;27.60;;
4420;SDS011;11824;51.178;13.546;2023-03-01T06:58:22;69.33;;;28.20;;
4420;SDS011;11824;51.178;13.546;2023-03-01T07:00:50;65.77;;;26.63;;
4420;SDS011;11824;51.178;13.546;2023-03-01T07:03:18;71.87;;;28.13;;
4420;SDS011;11824;51.178;13.546;2023-03-01T07:05:45;75.00;;;27.60;;
4420;SDS011;11824;51.178;13.546;2023-03-01T07:08:15;64.57;;;30.07;;
4420;SDS011;11824;51.178;13.546;2023-03-01T07:10:42;74.17;;;28.83;;
4420;SDS011;11824;51.178;13.546;2023-03-01T07:13:09;121.33;;;28.40;;
4420;SDS011;11824;51.178;13.546;2023-03-01T07:15:37;77.30;;;29.67;;
4420;SDS011;11824;51.178;13.546;2023-03-01T07:18:06;62.97;;;28.03;;
4420;SDS011;11824;51.178;13.546;2023-03-01T07:20:34;67.97;;;28.87;;
4420;SDS011;11824;51.178;13.546;2023-03-01T07:23:01;61.13;;;27.50;;
4420;SDS011;11824;51.178;13.546;2023-03-01T07:25:29;55.63;;;26.07;;
4420;SDS011;11824;51.178;13.546;2023-03-01T07:27:56;71.47;;;29.00;;
4420;SDS011;11824;51.178;13.546;2023-03-01T07:30:24;78.20;;;31.30;;
4420;SDS011;11824;51.178;13.546;2023-03-01T07:32:53;59.63;;;28.93;;
4420;SDS011;11824;51.178;13.546;2023-03-01T07:35:22;61.87;;;27.30;;
4420;SDS011;11824;51.178;13.546;2023-03-01T07:37:50;81.03;;;31.03;;
4420;SDS011;11824;51.178;13.546;2023-03-01T07:40:18;55.07;;;25.27;;
4420;SDS011;11824;51.178;13.546;2023-03-01T07:42:45;72.80;;;29.20;;
4420;SDS011;11824;51.178;13.546;2023-03-01T07:45:13;62.43;;;25.87;;
4420;SDS011;11824;51.178;13.546;2023-03-01T07:47:40;60.50;;;25.10;;
4420;SDS011;11824;51.178;13.546;2023-03-01T07:50:08;69.30;;;29.43;;
4420;SDS011;11824;51.178;13.546;2023-03-01T07:52:40;59.30;;;27.37;;
4420;SDS011;11824;51.178;13.546;2023-03-01T07:55:07;59.73;;;26.27;;
4420;SDS011;11824;51.178;13.546;2023-03-01T07:57:37;69.57;;;29.57;;
4420;SDS011;11824;51.178;13.546;2023-03-01T08:00:11;69.47;;;28.80;;
4420;SDS011;11824;51.178;13.546;2023-03-01T08:02:39;76.17;;;31.50;;
4420;SDS011;11824;51.178;13.546;2023-03-01T08:05:07;59.80;;;26.53;;
4420;SDS011;11824;51.178;13.546;2023-03-01T08:07:37;67.20;;;28.60;;
4420;SDS011;11824;51.178;13.546;2023-03-01T08:10:05;70.57;;;30.13;;
4420;SDS011;11824;51.178;13.546;2023-03-01T08:12:33;70.07;;;30.60;;
4420;SDS011;11824;51.178;13.546;2023-03-01T08:15:01;68.27;;;27.93;;
4420;SDS011;11824;51.178;13.546;2023-03-01T08:17:28;68.57;;;27.47;;
4420;SDS011;11824;51.178;13.546;2023-03-01T08:19:55;77.20;;;29.17;;
4420;SDS011;11824;51.178;13.546;2023-03-01T08:22:22;76.80;;;31.87;;
4420;SDS011;11824;51.178;13.546;2023-03-01T08:24:50;64.47;;;29.60;;
4420;SDS011;11824;51.178;13.546;2023-03-01T08:27:18;78.57;;;31.00;;
4420;SDS011;11824;51.178;13.546;2023-03-01T08:29:46;66.80;;;32.77;;
4420;SDS011;11824;51.178;13.546;2023-03-01T08:32:13;70.57;;;33.77;;
4420;SDS011;11824;51.178;13.546;2023-03-01T08:34:40;87.23;;;34.10;;
4420;SDS011;11824;51.178;13.546;2023-03-01T08:37:08;74.53;;;33.20;;
4420;SDS011;11824;51.178;13.546;2023-03-01T08:39:35;77.87;;;35.17;;
4420;SDS011;11824;51.178;13.546;2023-03-01T08:42:02;74.83;;;32.03;;
4420;SDS011;11824;51.178;13.546;2023-03-01T08:44:31;80.00;;;35.73;;
4420;SDS011;11824;51.178;13.546;2023-03-01T08:46:59;73.43;;;33.10;;
4420;SDS011;11824;51.178;13.546;2023-03-01T08:49:27;62.60;;;31.23;;
4420;SDS011;11824;51.178;13.546;2023-03-01T08:51:55;70.37;;;32.80;;
4420;SDS011;11824;51.178;13.546;2023-03-01T08:54:22;79.50;;;38.47;;
4420;SDS011;11824;51.178;13.546;2023-03-01T08:56:50;74.60;;;32.83;;
4420;SDS011;11824;51.178;13.546;2023-03-01T08:59:17;71.13;;;32.70;;
4420;SDS011;11824;51.178;13.546;2023-03-01T09:01:45;63.17;;;30.83;;
4420;SDS011;11824;51.178;13.546;2023-03-01T09:04:14;65.07;;;28.23;;
4420;SDS011;11824;51.178;13.546;2023-03-01T09:06:41;61.17;;;29.83;;
4420;SDS011;11824;51.178;13.546;2023-03-01T09:09:10;60.00;;;28.97;;
4420;SDS011;11824;51.178;13.546;2023-03-01T09:11:41;61.90;;;29.37;;
4420;SDS011;11824;51.178;13.546;2023-03-01T09:14:09;64.67;;;30.20;;
4420;SDS011;11824;51.178;13.546;2023-03-01T09:16:37;57.27;;;26.07;;
4420;SDS011;11824;51.178;13.546;2023-03-01T09:19:05;72.17;;;32.10;;
4420;SDS011;11824;51.178;13.546;2023-03-01T09:21:33;64.37;;;29.53;;
4420;SDS011;11824;51.178;13.546;2023-03-01T09:24:06;56.13;;;27.27;;
4420;SDS011;11824;51.178;13.546;2023-03-01T09:26:38;59.47;;;29.83;;
4420;SDS011;11824;51.178;13.546;2023-03-01T09:29:05;54.50;;;28.20;;
4420;SDS011;11824;51.178;13.546;2023-03-01T09:31:34;71.67;;;28.53;;
4420;SDS011;11824;51.178;13.546;2023-03-01T09:34:02;67.80;;;30.90;;
4420;SDS011;11824;51.178;13.546;2023-03-01T09:36:30;62.73;;;30.40;;
4420;SDS011;11824;51.178;13.546;2023-03-01T09:38:58;54.03;;;25.90;;
4420;SDS011;11824;51.178;13.546;2023-03-01T09:41:38;58.03;;;28.20;;
4420;SDS011;11824;51.178;13.546;2023-03-01T09:44:23;60.30;;;29.90;;
4420;SDS011;11824;51.178;13.546;2023-03-01T09:46:56;64.03;;;29.70;;
4420;SDS011;11824;51.178;13.546;2023-03-01T09:49:25;61.40;;;28.63;;
4420;SDS011;11824;51.178;13.546;2023-03-01T09:51:55;54.80;;;28.50;;
4420;SDS011;11824;51.178;13.546;2023-03-01T09:54:26;51.60;;;25.70;;
4420;SDS011;11824;51.178;13.546;2023-03-01T09:56:57;57.90;;;27.40;;
4420;SDS011;11824;51.178;13.546;2023-03-01T09:59:40;61.80;;;28.63;;
4420;SDS011;11824;51.178;13.546;2023-03-01T10:02:21;56.13;;;27.10;;
4420;SDS011;11824;51.178;13.546;2023-03-01T10:04:54;52.80;;;25.70;;
4420;SDS011;11824;51.178;13.546;2023-03-01T10:07:28;32.30;;;14.23;;
4420;SDS011;11824;51.178;13.546;2023-03-01T10:10:04;51.17;;;23.77;;
4420;SDS011;11824;51.178;13.546;2023-03-01T10:12:33;27.53;;;13.50;;
4420;SDS011;11824;51.178;13.546;2023-03-01T10:15:04;43.63;;;17.80;;
4420;SDS011;11824;51.178;13.546;2023-03-01T10:17:36;43.17;;;20.47;;
4420;SDS011;11824;51.178;13.546;2023-03-01T10:20:14;30.47;;;14.27;;
4420;SDS011;11824;51.178;13.546;2023-03-01T10:22:45;30.87;;;12.97;;
4420;SDS011;11824;51.178;13.546;2023-03-01T10:25:17;28.97;;;16.20;;
4420;SDS011;11824;51.178;13.546;2023-03-01T10:27:51;34.47;;;18.57;;
4420;SDS011;11824;51.178;13.546;2023-03-01T10:30:21;39.20;;;19.87;;
4420;SDS011;11824;51.178;13.546;2023-03-01T10:32:55;49.07;;;17.63;;
4420;SDS011;11824;51.178;13.546;2023-03-01T10:35:25;40.80;;;17.23;;
4420;SDS011;11824;51.178;13.546;2023-03-01T10:37:59;40.53;;;20.27;;
4420;SDS011;11824;51.178;13.546;2023-03-01T10:40:32;30.37;;;14.03;;
4420;SDS011;11824;51.178;13.546;2023-03-01T10:43:02;17.43;;;7.73;;
4420;SDS011;11824;51.178;13.546;2023-03-01T10:45:32;32.47;;;17.80;;
4420;SDS011;11824;51.178;13.546;2023-03-01T10:48:05;34.40;;;19.00;;
4420;SDS011;11824;51.178;13.546;2023-03-01T10:50:38;43.60;;;17.70;;
4420;SDS011;11824;51.178;13.546;2023-03-01T10:53:16;37.53;;;16.73;;
4420;SDS011;11824;51.178;13.546;2023-03-01T10:56:04;41.57;;;18.93;;
4420;SDS011;11824;51.178;13.546;2023-03-01T10:58:34;21.53;;;10.77;;
4420;SDS011;11824;51.178;13.546;2023-03-01T11:01:03;32.67;;;14.77;;
4420;SDS011;11824;51.178;13.546;2023-03-01T11:03:33;28.70;;;15.03;;
4420;SDS011;11824;51.178;13.546;2023-03-01T11:06:04;37.63;;;18.07;;
4420;SDS011;11824;51.178;13.546;2023-03-01T11:08:43;32.73;;;15.37;;
4420;SDS011;11824;51.178;13.546;2023-03-01T11:11:17;34.20;;;17.97;;
4420;SDS011;11824;51.178;13.546;2023-03-01T11:13:58;30.57;;;12.40;;
4420;SDS011;11824;51.178;13.546;2023-03-01T11:16:36;26.53;;;10.67;;
4420;SDS011;11824;51.178;13.546;2023-03-01T11:19:16;21.50;;;8.97;;
4420;SDS011;11824;51.178;13.546;2023-03-01T11:21:56;33.30;;;17.07;;
4420;SDS011;11824;51.178;13.546;2023-03-01T11:24:29;27.47;;;14.37;;
4420;SDS011;11824;51.178;13.546;2023-03-01T11:27:04;24.50;;;12.90;;
4420;SDS011;11824;51.178;13.546;2023-03-01T11:29:38;14.87;;;8.43;;
4420;SDS011;11824;51.178;13.546;2023-03-01T11:32:14;16.50;;;8.47;;
4420;SDS011;11824;51.178;13.546;2023-03-01T11:34:45;20.07;;;9.27;;
4420;SDS011;11824;51.178;13.546;2023-03-01T11:37:22;21.60;;;11.20;;
4420;SDS011;11824;51.178;13.546;2023-03-01T11:40:03;23.00;;;9.90;;
4420;SDS011;11824;51.178;13.546;2023-03-01T11:42:46;31.00;;;15.40;;
4420;SDS011;11824;51.178;13.546;2023-03-01T11:45:20;31.53;;;15.00;;
4420;SDS011;11824;51.178;13.546;2023-03-01T11:47:55;24.23;;;11.10;;
4420;SDS011;11824;51.178;13.546;2023-03-01T11:50:39;20.30;;;10.90;;
4420;SDS011;11824;51.178;13.546;2023-03-01T11:53:20;16.20;;;10.73;;
4420;SDS011;11824;51.178;13.546;2023-03-01T11:56:02;26.43;;;14.60;;
4420;SDS011;11824;51.178;13.546;2023-03-01T11:58:40;15.73;;;9.80;;
4420;SDS011;11824;51.178;13.546;2023-03-01T12:01:31;16.63;;;8.30;;
4420;SDS011;11824;51.178;13.546;2023-03-01T12:04:15;13.20;;;6.70;;
4420;SDS011;11824;51.178;13.546;2023-03-01T12:06:59;20.73;;;12.37;;
4420;SDS011;11824;51.178;13.546;2023-03-01T12:09:36;20.50;;;12.40;;
4420;SDS011;11824;51.178;13.546;2023-03-01T12:15:08;10.90;;;6.30;;
4420;SDS011;11824;51.178;13.546;2023-03-01T12:18:04;18.70;;;9.27;;
4420;SDS011;11824;51.178;13.546;2023-03-01T12:20:51;18.03;;;9.40;;
4420;SDS011;11824;51.178;13.546;2023-03-01T12:23:33;11.00;;;7.70;;
4420;SDS011;11824;51.178;13.546;2023-03-01T12:26:27;13.17;;;8.03;;
4420;SDS011;11824;51.178;13.546;2023-03-01T12:29:05;20.30;;;7.57;;
4420;SDS011;11824;51.178;13.546;2023-03-01T12:31:50;17.23;;;7.13;;
4420;SDS011;11824;51.178;13.546;2023-03-01T12:34:37;13.63;;;6.57;;
4420;SDS011;11824;51.178;13.546;2023-03-01T12:37:25;20.07;;;8.20;;
4420;SDS011;11824;51.178;13.546;2023-03-01T12:40:05;17.50;;;9.30;;
4420;SDS011;11824;51.178;13.546;2023-03-01T12:42:55;13.13;;;6.37;;
4420;SDS011;11824;51.178;13.546;2023-03-01T12:45:38;18.00;;;9.50;;
4420;SDS011;11824;51.178;13.546;2023-03-01T12:48:26;25.37;;;11.83;;
4420;SDS011;11824;51.178;13.546;2023-03-01T12:51:09;13.33;;;7.60;;
4420;SDS011;11824;51.178;13.546;2023-03-01T12:53:43;17.10;;;5.70;;
4420;SDS011;11824;51.178;13.546;2023-03-01T12:56:14;21.70;;;11.53;;
4420;SDS011;11824;51.178;13.546;2023-03-01T12:58:52;14.40;;;7.97;;
4420;SDS011;11824;51.178;13.546;2023-03-01T13:01:35;25.93;;;12.77;;
4420;SDS011;11824;51.178;13.546;2023-03-01T13:06:24;26.40;;;10.80;;
4420;SDS011;11824;51.178;13.546;2023-03-01T13:10:46;21.83;;;11.87;;
4420;SDS011;11824;51.178;13.546;2023-03-01T13:13:31;12.37;;;7.40;;
4420;SDS011;11824;51.178;13.546;2023-03-01T13:15:59;17.27;;;10.53;;
4420;SDS011;11824;51.178;13.546;2023-03-01T13:18:53;20.17;;;9.50;;
4420;SDS011;11824;51.178;13.546;2023-03-01T13:21:56;19.27;;;10.50;;
4420;SDS011;11824;51.178;13.546;2023-03-01T13:24:28;22.87;;;10.63;;
4420;SDS011;11824;51.178;13.546;2023-03-01T13:39:27;15.07;;;9.30;;
4420;SDS011;11824;51.178;13.546;2023-03-01T13:45:20;16.87;;;10.17;;
4420;SDS011;11824;51.178;13.546;2023-03-01T13:48:00;15.50;;;7.50;;
4420;SDS011;11824;51.178;13.546;2023-03-01T13:50:36;19.43;;;9.83;;
4420;SDS011;11824;51.178;13.546;2023-03-01T13:53:11;11.57;;;7.00;;
4420;SDS011;11824;51.178;13.546;2023-03-01T13:55:44;19.93;;;11.63;;
4420;SDS011;11824;51.178;13.546;2023-03-01T13:58:15;19.73;;;9.47;;
4420;SDS011;11824;51.178;13.546;2023-03-01T14:00:46;17.63;;;10.30;;
4420;SDS011;11824;51.178;13.546;2023-03-01T14:03:20;19.00;;;10.87;;
4420;SDS011;11824;51.178;13.546;2023-03-01T14:05:57;14.17;;;6.80;;
4420;SDS011;11824;51.178;13.546;2023-03-01T14:08:41;21.40;;;10.60;;
4420;SDS011;11824;51.178;13.546;2023-03-01T14:14:14;12.27;;;7.33;;
4420;SDS011;11824;51.178;13.546;2023-03-01T14:17:04;12.50;;;6.00;;
4420;SDS011;11824;51.178;13.546;2023-03-01T14:19:45;15.53;;;9.50;;
4420;SDS011;11824;51.178;13.546;2023-03-01T14:22:16;15.03;;;8.23;;
4420;SDS011;11824;51.178;13.546;2023-03-01T14:24:50;21.80;;;10.57;;
4420;SDS011;11824;51.178;13.546;2023-03-01T14:27:20;7.60;;;5.07;;
4420;SDS011;11824;51.178;13.546;2023-03-01T14:29:56;15.40;;;9.30;;
4420;SDS011;11824;51.178;13.546;2023-03-01T14:32:25;18.70;;;9.77;;
4420;SDS011;11824;51.178;13.546;2023-03-01T14:34:54;8.20;;;5.60;;
4420;SDS011;11824;51.178;13.546;2023-03-01T14:37:24;11.27;;;5.50;;
4420;SDS011;11824;51.178;13.546;2023-03-01T14:39:54;15.90;;;9.27;;
4420;SDS011;11824;51.178;13.546;2023-03-01T14:42:23;20.90;;;9.10;;
4420;SDS011;11824;51.178;13.546;2023-03-01T14:44:53;16.63;;;8.00;;
4420;SDS011;11824;51.178;13.546;2023-03-01T14:47:25;15.63;;;9.60;;
4420;SDS011;11824;51.178;13.546;2023-03-01T14:49:56;24.87;;;11.90;;
4420;SDS011;11824;51.178;13.546;2023-03-01T14:52:27;15.67;;;6.23;;
4420;SDS011;11824;51.178;13.546;2023-03-01T14:55:02;10.73;;;6.47;;
4420;SDS011;11824;51.178;13.546;2023-03-01T14:57:32;15.80;;;7.13;;
4420;SDS011;11824;51.178;13.546;2023-03-01T15:00:00;8.40;;;5.27;;
4420;SDS011;11824;51.178;13.546;2023-03-01T15:02:31;7.63;;;4.60;;
4420;SDS011;11824;51.178;13.546;2023-03-01T15:05:00;16.53;;;8.53;;
4420;SDS011;11824;51.178;13.546;2023-03-01T15:07:34;9.77;;;5.63;;
4420;SDS011;11824;51.178;13.546;2023-03-01T15:10:06;7.93;;;5.10;;
4420;SDS011;11824;51.178;13.546;2023-03-01T15:12:41;12.77;;;5.87;;